Maestro Sun — V7ET2 — position and weather

sailwx.info

Track history (hours):
 
Tides and Currents Weather Stations Pressure Air Temp Water Temp Dewpoint Dewpoint Depression Visibility Wind Speed Wind Dir Waves Ship Positions

Maestro Sun

Last reported at 2018-Feb-25 01:57 UTC. Time now 2018-Feb-25 02:11 UTC.
Position N 36°08' W 005°26'.

; draft 5.3 m.

Type: Ship (hazmat cat A). MMSI: 538001857.

Date/timePositionNaut miles runAvg speedWind from/ knotsBaromVisibWave heightAir tempDewpointWater temp
2018-Feb-25 01:57N 36°08' W 005°26'0 0.0
2018-Feb-25 01:30N 36°08' W 005°26'0 0.0
2018-Feb-25 00:48N 36°08' W 005°26'0 0.0
2018-Feb-25 00:30N 36°08' W 005°26'0 0.0
2018-Feb-24 23:57N 36°08' W 005°26'0 0.0
2018-Feb-24 23:30N 36°08' W 005°26'0 0.0
2018-Feb-24 22:57N 36°08' W 005°26'0 0.0
2018-Feb-24 22:27N 36°08' W 005°26'0 0.0
2018-Feb-24 22:00N 36°08' W 005°26'0 0.0
2018-Feb-24 21:30N 36°08' W 005°26'0 0.0
2018-Feb-24 21:00N 36°08' W 005°26'1 2.4
2018-Feb-24 20:26N 36°09' W 005°26'7 9.9
2018-Feb-24 19:47N 36°03' W 005°24'414.3
2018-Feb-24 19:30N 35°59' W 005°25'5 0.9
2018-Feb-24 14:10N 35°56' W 005°30'212.1
2018-Feb-24 14:00N 35°58' W 005°29'611.8
2018-Feb-24 13:30N 36°02' W 005°24'5 0.9
2018-Feb-24 07:13N 36°08' W 005°26'0 0.0
2018-Feb-24 07:00N 36°08' W 005°26'0 0.0
2018-Feb-24 06:30N 36°08' W 005°26'0 0.0
2018-Feb-24 05:57N 36°08' W 005°26'0 0.0
2018-Feb-24 05:24N 36°08' W 005°26'0 0.0
2018-Feb-24 05:00N 36°08' W 005°26'0 0.0
2018-Feb-24 04:30N 36°08' W 005°26'0 0.0
2018-Feb-24 04:00N 36°08' W 005°26'0 0.0
2018-Feb-24 03:30N 36°08' W 005°26'0 0.0
2018-Feb-24 03:00N 36°08' W 005°26'0 0.0
2018-Feb-24 02:30N 36°08' W 005°26'0 0.0
2018-Feb-24 02:00N 36°08' W 005°26'0 0.0
2018-Feb-24 01:30N 36°08' W 005°26'0 0.0
2018-Feb-24 00:57N 36°08' W 005°26'0 0.0
2018-Feb-24 00:30N 36°08' W 005°26'0 0.0
2018-Feb-24 00:00N 36°08' W 005°26'0 0.0
2018-Feb-23 23:28N 36°08' W 005°26'0 0.0
2018-Feb-23 23:00N 36°08' W 005°26'0 0.0
2018-Feb-23 22:27N 36°08' W 005°26'0 0.0
2018-Feb-23 22:00N 36°08' W 005°26'0 0.0
2018-Feb-23 21:30N 36°08' W 005°26'0 0.0
2018-Feb-23 20:54N 36°08' W 005°26'0 0.0
2018-Feb-23 20:30N 36°08' W 005°26'1 3.0
2018-Feb-23 20:00N 36°09' W 005°25'5 9.3
2018-Feb-23 19:30N 36°05' W 005°23'713.0
2018-Feb-23 19:00N 35°59' W 005°26'4 0.9
2018-Feb-23 14:31N 35°56' W 005°30'012.3
2018-Feb-23 14:30N 35°57' W 005°30'611.7
2018-Feb-23 14:00N 36°01' W 005°25'7 1.2
2018-Feb-23 08:24N 36°08' W 005°26'6 5.7
2018-Feb-23 07:22N 36°02' W 005°23'514.7
2018-Feb-23 07:00N 35°58' W 005°26'7 4.5
2018-Feb-23 05:31N 35°53' W 005°31'0 0.0
2018-Feb-23 05:18N 35°53' W 005°31'0 0.0
2018-Feb-23 04:50N 35°53' W 005°31'0 0.0
2018-Feb-23 02:55N 35°53' W 005°31'0 0.0
2018-Feb-23 02:26N 35°53' W 005°31'0 0.0
2018-Feb-23 01:49N 35°53' W 005°31'0 0.0
2018-Feb-23 01:21N 35°53' W 005°31'0 0.0
2018-Feb-23 00:55N 35°53' W 005°31'0 0.0
2018-Feb-23 00:30N 35°53' W 005°31'5 1.0
2018-Feb-22 19:57N 35°57' W 005°31'511.8
2018-Feb-22 19:30N 36°00' W 005°26'612.3
2018-Feb-22 19:00N 36°06' W 005°24'2 0.8
2018-Feb-22 15:56N 36°08' W 005°26'0 0.0
2018-Feb-22 15:26N 36°08' W 005°26'0 0.0
2018-Feb-22 14:58N 36°08' W 005°26'1 1.5
2018-Feb-22 14:29N 36°08' W 005°26'6 8.0
2018-Feb-22 13:43N 36°03' W 005°23'314.4
2018-Feb-22 13:30N 36°00' W 005°24'7 1.1
2018-Feb-22 07:02N 35°55' W 005°31'1 8.7
2018-Feb-22 06:55N 35°56' W 005°31'512.1
2018-Feb-22 06:29N 36°00' W 005°27'611.7
2018-Feb-22 06:00N 36°05' W 005°24'3 6.1
2018-Feb-22 05:30N 36°08' W 005°26'0 0.3
2018-Feb-22 04:56N 36°08' W 005°26'0 0.0
2018-Feb-22 04:29N 36°08' W 005°26'0 0.0
2018-Feb-22 03:59N 36°08' W 005°26'0 0.0
2018-Feb-22 03:29N 36°08' W 005°26'0 0.0
2018-Feb-22 02:56N 36°08' W 005°26'0 0.0
2018-Feb-22 02:29N 36°08' W 005°26'0 0.0
2018-Feb-22 01:59N 36°08' W 005°26'0 0.0
2018-Feb-22 01:29N 36°08' W 005°26'0 0.0
2018-Feb-22 01:00N 36°08' W 005°26'0 0.0
2018-Feb-22 00:26N 36°08' W 005°26'0 0.0
2018-Feb-21 23:59N 36°08' W 005°26'0 0.0
2018-Feb-21 23:29N 36°08' W 005°26'0 0.0
2018-Feb-21 23:00N 36°08' W 005°26'0 0.0
2018-Feb-21 22:29N 36°08' W 005°26'0 0.0
2018-Feb-21 21:59N 36°08' W 005°26'0 0.0
2018-Feb-21 21:29N 36°08' W 005°26'0 0.0
2018-Feb-21 20:57N 36°08' W 005°26'1 1.2
2018-Feb-21 20:31N 36°08' W 005°26'3 5.6
2018-Feb-21 20:00N 36°06' W 005°23'714.2
2018-Feb-21 19:30N 35°59' W 005°25'815.0
2018-Feb-21 19:00N 35°53' W 005°31'3 0.9
2018-Feb-21 14:56N 35°57' W 005°30'410.1
2018-Feb-21 14:30N 36°00' W 005°27'5 9.6
2018-Feb-21 14:00N 36°04' W 005°23'610.9
2018-Feb-21 13:29N 36°09' W 005°26'1 2.2
2018-Feb-21 12:54N 36°08' W 005°26'0 0.0
2018-Feb-21 11:00N 36°08' W 005°26'0 0.0
2018-Feb-21 09:30N 36°08' W 005°26'0 0.0
2018-Feb-21 08:58N 36°08' W 005°26'0 0.2
2018-Feb-21 08:29N 36°08' W 005°26'3 3.5
2018-Feb-21 07:32N 36°05' W 005°23'110.9
2018-Feb-21 07:27N 36°04' W 005°23'614.3
2018-Feb-21 07:00N 35°58' W 005°26'7 2.7
2018-Feb-21 04:17N 35°53' W 005°31'0 0.0
2018-Feb-21 03:46N 35°53' W 005°31'0 0.0
2018-Feb-21 03:30N 35°53' W 005°31'0 0.0
2018-Feb-21 02:56N 35°53' W 005°31'0 0.0
2018-Feb-21 02:26N 35°53' W 005°31'0 0.0
2018-Feb-21 01:57N 35°53' W 005°31'0 0.0
2018-Feb-21 01:28N 35°53' W 005°31'0 0.0
2018-Feb-21 00:58N 35°53' W 005°31'0 0.0
2018-Feb-21 00:30N 35°53' W 005°31'0 0.0
2018-Feb-20 23:53N 35°53' W 005°31'0 0.0
2018-Feb-20 23:25N 35°53' W 005°31'0 0.1
2018-Feb-20 22:57N 35°53' W 005°31'2 3.7
2018-Feb-20 22:30N 35°54' W 005°31'3 5.9
2018-Feb-20 22:00N 35°57' W 005°30'510.7
2018-Feb-20 21:29N 36°01' W 005°26'612.8
2018-Feb-20 21:00N 36°07' W 005°24'2 3.2
2018-Feb-20 20:27N 36°08' W 005°26'0 0.0
2018-Feb-20 20:00N 36°08' W 005°26'0 0.0
2018-Feb-20 19:30N 36°08' W 005°26'0 0.0
2018-Feb-20 18:57N 36°08' W 005°26'0 0.0
2018-Feb-20 16:36N 36°08' W 005°26'0 0.0
2018-Feb-20 16:30N 36°08' W 005°26'0 0.0
2018-Feb-20 15:51N 36°08' W 005°26'0 0.0
2018-Feb-20 15:30N 36°08' W 005°26'0 0.0
2018-Feb-20 15:00N 36°08' W 005°26'0 0.4
2018-Feb-20 14:30N 36°08' W 005°26'5 6.7
2018-Feb-20 13:47N 36°03' W 005°24'415.5
2018-Feb-20 13:31N 35°59' W 005°25'5 0.3
2018-Feb-19 20:20N 35°56' W 005°30'411.3
2018-Feb-19 20:00N 35°59' W 005°27'612.3
2018-Feb-19 19:30N 36°05' W 005°23'4 8.0
2018-Feb-19 19:00N 36°08' W 005°26'0 0.6
2018-Feb-19 18:20N 36°08' W 005°26'0 0.0
2018-Feb-19 17:56N 36°08' W 005°26'0 0.0
2018-Feb-19 17:26N 36°08' W 005°26'0 0.0
2018-Feb-19 16:59N 36°08' W 005°26'0 0.0
2018-Feb-19 16:11N 36°08' W 005°26'0 0.0
2018-Feb-19 15:59N 36°08' W 005°26'0 0.0
2018-Feb-19 15:29N 36°08' W 005°26'0 0.0
2018-Feb-19 15:00N 36°08' W 005°26'1 2.5
2018-Feb-19 14:30N 36°09' W 005°26'611.6
2018-Feb-19 14:00N 36°04' W 005°23'714.0
2018-Feb-19 13:30N 35°57' W 005°27'  
2018-Feb-15 23:18N 36°08' W 005°26'0 0.0
2018-Feb-15 23:00N 36°08' W 005°26'0 0.0
2018-Feb-15 22:27N 36°08' W 005°26'0 0.0
2018-Feb-15 22:00N 36°08' W 005°26'0 0.0
2018-Feb-15 21:30N 36°08' W 005°26'0 0.0
2018-Feb-15 20:45N 36°08' W 005°26'1 2.4
2018-Feb-15 20:29N 36°08' W 005°26'2 3.5
2018-Feb-15 20:00N 36°08' W 005°24'712.9
2018-Feb-15 19:30N 36°01' W 005°24'7 1.5
2018-Feb-15 15:05N 35°57' W 005°30'111.9
2018-Feb-15 15:00N 35°58' W 005°30'511.0
2018-Feb-15 14:30N 36°01' W 005°24'611.6
2018-Feb-15 14:00N 36°07' W 005°24'2 0.4
2018-Feb-15 08:05N 36°08' W 005°26'3 5.0
2018-Feb-15 07:29N 36°05' W 005°24'714.9
2018-Feb-15 07:00N 35°58' W 005°26'  
Track history (hours):
 
Tides and Currents Weather Stations Pressure Air Temp Water Temp Dewpoint Dewpoint Depression Visibility Wind Speed Wind Dir Waves Ship Positions

Maestro Sun

Last reported at 2018-Feb-25 01:57 UTC. Time now 2018-Feb-25 02:11 UTC.
Position N 36°08' W 005°26'.

; draft 5.3 m.

Type: Ship (hazmat cat A). MMSI: 538001857.

Date/timePositionNaut miles runAvg speedWind from/ knotsBaromVisibWave heightAir tempDewpointWater temp
2018-Feb-25 01:57N 36°08' W 005°26'0 0.0
2018-Feb-25 01:30N 36°08' W 005°26'0 0.0
2018-Feb-25 00:48N 36°08' W 005°26'0 0.0
2018-Feb-25 00:30N 36°08' W 005°26'0 0.0
2018-Feb-24 23:57N 36°08' W 005°26'0 0.0
2018-Feb-24 23:30N 36°08' W 005°26'0 0.0
2018-Feb-24 22:57N 36°08' W 005°26'0 0.0
2018-Feb-24 22:27N 36°08' W 005°26'0 0.0
2018-Feb-24 22:00N 36°08' W 005°26'0 0.0
2018-Feb-24 21:30N 36°08' W 005°26'0 0.0
2018-Feb-24 21:00N 36°08' W 005°26'1 2.4
2018-Feb-24 20:26N 36°09' W 005°26'7 9.9
2018-Feb-24 19:47N 36°03' W 005°24'414.3
2018-Feb-24 19:30N 35°59' W 005°25'5 0.9
2018-Feb-24 14:10N 35°56' W 005°30'212.1
2018-Feb-24 14:00N 35°58' W 005°29'611.8
2018-Feb-24 13:30N 36°02' W 005°24'5 0.9
2018-Feb-24 07:13N 36°08' W 005°26'0 0.0
2018-Feb-24 07:00N 36°08' W 005°26'0 0.0
2018-Feb-24 06:30N 36°08' W 005°26'0 0.0
2018-Feb-24 05:57N 36°08' W 005°26'0 0.0
2018-Feb-24 05:24N 36°08' W 005°26'0 0.0
2018-Feb-24 05:00N 36°08' W 005°26'0 0.0
2018-Feb-24 04:30N 36°08' W 005°26'0 0.0
2018-Feb-24 04:00N 36°08' W 005°26'0 0.0
2018-Feb-24 03:30N 36°08' W 005°26'0 0.0
2018-Feb-24 03:00N 36°08' W 005°26'0 0.0
2018-Feb-24 02:30N 36°08' W 005°26'0 0.0
2018-Feb-24 02:00N 36°08' W 005°26'0 0.0
2018-Feb-24 01:30N 36°08' W 005°26'0 0.0
2018-Feb-24 00:57N 36°08' W 005°26'0 0.0
2018-Feb-24 00:30N 36°08' W 005°26'0 0.0
2018-Feb-24 00:00N 36°08' W 005°26'0 0.0
2018-Feb-23 23:28N 36°08' W 005°26'0 0.0
2018-Feb-23 23:00N 36°08' W 005°26'0 0.0
2018-Feb-23 22:27N 36°08' W 005°26'0 0.0
2018-Feb-23 22:00N 36°08' W 005°26'0 0.0
2018-Feb-23 21:30N 36°08' W 005°26'0 0.0
2018-Feb-23 20:54N 36°08' W 005°26'0 0.0
2018-Feb-23 20:30N 36°08' W 005°26'1 3.0
2018-Feb-23 20:00N 36°09' W 005°25'5 9.3
2018-Feb-23 19:30N 36°05' W 005°23'713.0
2018-Feb-23 19:00N 35°59' W 005°26'4 0.9
2018-Feb-23 14:31N 35°56' W 005°30'012.3
2018-Feb-23 14:30N 35°57' W 005°30'611.7
2018-Feb-23 14:00N 36°01' W 005°25'7 1.2
2018-Feb-23 08:24N 36°08' W 005°26'6 5.7
2018-Feb-23 07:22N 36°02' W 005°23'514.7
2018-Feb-23 07:00N 35°58' W 005°26'7 4.5
2018-Feb-23 05:31N 35°53' W 005°31'0 0.0
2018-Feb-23 05:18N 35°53' W 005°31'0 0.0
2018-Feb-23 04:50N 35°53' W 005°31'0 0.0
2018-Feb-23 02:55N 35°53' W 005°31'0 0.0
2018-Feb-23 02:26N 35°53' W 005°31'0 0.0
2018-Feb-23 01:49N 35°53' W 005°31'0 0.0
2018-Feb-23 01:21N 35°53' W 005°31'0 0.0
2018-Feb-23 00:55N 35°53' W 005°31'0 0.0
2018-Feb-23 00:30N 35°53' W 005°31'5 1.0
2018-Feb-22 19:57N 35°57' W 005°31'511.8
2018-Feb-22 19:30N 36°00' W 005°26'612.3
2018-Feb-22 19:00N 36°06' W 005°24'2 0.8
2018-Feb-22 15:56N 36°08' W 005°26'0 0.0
2018-Feb-22 15:26N 36°08' W 005°26'0 0.0
2018-Feb-22 14:58N 36°08' W 005°26'1 1.5
2018-Feb-22 14:29N 36°08' W 005°26'6 8.0
2018-Feb-22 13:43N 36°03' W 005°23'314.4
2018-Feb-22 13:30N 36°00' W 005°24'7 1.1
2018-Feb-22 07:02N 35°55' W 005°31'1 8.7
2018-Feb-22 06:55N 35°56' W 005°31'512.1
2018-Feb-22 06:29N 36°00' W 005°27'611.7
2018-Feb-22 06:00N 36°05' W 005°24'3 6.1
2018-Feb-22 05:30N 36°08' W 005°26'0 0.3
2018-Feb-22 04:56N 36°08' W 005°26'0 0.0
2018-Feb-22 04:29N 36°08' W 005°26'0 0.0
2018-Feb-22 03:59N 36°08' W 005°26'0 0.0
2018-Feb-22 03:29N 36°08' W 005°26'0 0.0
2018-Feb-22 02:56N 36°08' W 005°26'0 0.0
2018-Feb-22 02:29N 36°08' W 005°26'0 0.0
2018-Feb-22 01:59N 36°08' W 005°26'0 0.0
2018-Feb-22 01:29N 36°08' W 005°26'0 0.0
2018-Feb-22 01:00N 36°08' W 005°26'0 0.0
2018-Feb-22 00:26N 36°08' W 005°26'0 0.0
2018-Feb-21 23:59N 36°08' W 005°26'0 0.0
2018-Feb-21 23:29N 36°08' W 005°26'0 0.0
2018-Feb-21 23:00N 36°08' W 005°26'0 0.0
2018-Feb-21 22:29N 36°08' W 005°26'0 0.0
2018-Feb-21 21:59N 36°08' W 005°26'0 0.0
2018-Feb-21 21:29N 36°08' W 005°26'0 0.0
2018-Feb-21 20:57N 36°08' W 005°26'1 1.2
2018-Feb-21 20:31N 36°08' W 005°26'3 5.6
2018-Feb-21 20:00N 36°06' W 005°23'714.2
2018-Feb-21 19:30N 35°59' W 005°25'815.0
2018-Feb-21 19:00N 35°53' W 005°31'3 0.9
2018-Feb-21 14:56N 35°57' W 005°30'410.1
2018-Feb-21 14:30N 36°00' W 005°27'5 9.6
2018-Feb-21 14:00N 36°04' W 005°23'610.9
2018-Feb-21 13:29N 36°09' W 005°26'1 2.2
2018-Feb-21 12:54N 36°08' W 005°26'0 0.0
2018-Feb-21 11:00N 36°08' W 005°26'0 0.0
2018-Feb-21 09:30N 36°08' W 005°26'0 0.0
2018-Feb-21 08:58N 36°08' W 005°26'0 0.2
2018-Feb-21 08:29N 36°08' W 005°26'3 3.5
2018-Feb-21 07:32N 36°05' W 005°23'110.9
2018-Feb-21 07:27N 36°04' W 005°23'614.3
2018-Feb-21 07:00N 35°58' W 005°26'7 2.7
2018-Feb-21 04:17N 35°53' W 005°31'0 0.0
2018-Feb-21 03:46N 35°53' W 005°31'0 0.0
2018-Feb-21 03:30N 35°53' W 005°31'0 0.0
2018-Feb-21 02:56N 35°53' W 005°31'0 0.0
2018-Feb-21 02:26N 35°53' W 005°31'0 0.0
2018-Feb-21 01:57N 35°53' W 005°31'0 0.0
2018-Feb-21 01:28N 35°53' W 005°31'0 0.0
2018-Feb-21 00:58N 35°53' W 005°31'0 0.0
2018-Feb-21 00:30N 35°53' W 005°31'0 0.0
2018-Feb-20 23:53N 35°53' W 005°31'0 0.0
2018-Feb-20 23:25N 35°53' W 005°31'0 0.1
2018-Feb-20 22:57N 35°53' W 005°31'2 3.7
2018-Feb-20 22:30N 35°54' W 005°31'3 5.9
2018-Feb-20 22:00N 35°57' W 005°30'510.7
2018-Feb-20 21:29N 36°01' W 005°26'612.8
2018-Feb-20 21:00N 36°07' W 005°24'2 3.2
2018-Feb-20 20:27N 36°08' W 005°26'0 0.0
2018-Feb-20 20:00N 36°08' W 005°26'0 0.0
2018-Feb-20 19:30N 36°08' W 005°26'0 0.0
2018-Feb-20 18:57N 36°08' W 005°26'0 0.0
2018-Feb-20 16:36N 36°08' W 005°26'0 0.0
2018-Feb-20 16:30N 36°08' W 005°26'0 0.0
2018-Feb-20 15:51N 36°08' W 005°26'0 0.0
2018-Feb-20 15:30N 36°08' W 005°26'0 0.0
2018-Feb-20 15:00N 36°08' W 005°26'0 0.4
2018-Feb-20 14:30N 36°08' W 005°26'5 6.7
2018-Feb-20 13:47N 36°03' W 005°24'415.5
2018-Feb-20 13:31N 35°59' W 005°25'5 0.3
2018-Feb-19 20:20N 35°56' W 005°30'411.3
2018-Feb-19 20:00N 35°59' W 005°27'612.3
2018-Feb-19 19:30N 36°05' W 005°23'4 8.0
2018-Feb-19 19:00N 36°08' W 005°26'0 0.6
2018-Feb-19 18:20N 36°08' W 005°26'0 0.0
2018-Feb-19 17:56N 36°08' W 005°26'0 0.0
2018-Feb-19 17:26N 36°08' W 005°26'0 0.0
2018-Feb-19 16:59N 36°08' W 005°26'0 0.0
2018-Feb-19 16:11N 36°08' W 005°26'0 0.0
2018-Feb-19 15:59N 36°08' W 005°26'0 0.0
2018-Feb-19 15:29N 36°08' W 005°26'0 0.0
2018-Feb-19 15:00N 36°08' W 005°26'1 2.5
2018-Feb-19 14:30N 36°09' W 005°26'611.6
2018-Feb-19 14:00N 36°04' W 005°23'714.0
2018-Feb-19 13:30N 35°57' W 005°27'  
2018-Feb-15 23:18N 36°08' W 005°26'0 0.0
2018-Feb-15 23:00N 36°08' W 005°26'0 0.0
2018-Feb-15 22:27N 36°08' W 005°26'0 0.0
2018-Feb-15 22:00N 36°08' W 005°26'0 0.0
2018-Feb-15 21:30N 36°08' W 005°26'0 0.0
2018-Feb-15 20:45N 36°08' W 005°26'1 2.4
2018-Feb-15 20:29N 36°08' W 005°26'2 3.5
2018-Feb-15 20:00N 36°08' W 005°24'712.9
2018-Feb-15 19:30N 36°01' W 005°24'7 1.5
2018-Feb-15 15:05N 35°57' W 005°30'111.9
2018-Feb-15 15:00N 35°58' W 005°30'511.0
2018-Feb-15 14:30N 36°01' W 005°24'611.6
2018-Feb-15 14:00N 36°07' W 005°24'2 0.4
2018-Feb-15 08:05N 36°08' W 005°26'3 5.0
2018-Feb-15 07:29N 36°05' W 005°24'714.9
2018-Feb-15 07:00N 35°58' W 005°26'  

Dump ship's entire track history